Central Sonoma County Latest

26 Stations

15 Minute Data | America/Los_Angeles
as of 11/28/20 12:48 PM PST
Station Date Time Temp (°F) RH (%) Dew Pt (°F) Wind Spd (mph) Wind Dir (°) Wind Gust (mph) Latest Rain (In) Daily Rain (In) Daily Min Temp (°F) Daily Max Temp (°F)
Healdsburg-South (Sodini) 11/28/20 1245 62.9   1.6 27   4 28.5   2.5 1.3 W | 280 4.1   2.0 0.00 0.00 28.9   1.3 63.4   1.8
Windsor-NW (Ranch 8) 11/28/20 1245 66.0   2.0 28   0 31.8   2.1 1.3 W | 264 3.1   3.0 0.00 0.00 33.2   1.4 68.4   1.6
Windsor-East (Ranch 16) 11/28/20 1245 62.2   1.7 28   6 29.0   4.5 2.8 WSW | 240 4.7   0.1 0.00 0.00 28.2   1.9 62.8   1.6
Mark West-North (Ranch 14) 11/28/20 1245 61.9   2.2 31   9 31.0   6.2 1.1 ENE | 68 3.1   2.1 0.00 0.00 27.1   2.7 63.2   1.4
Windsor-SE (Silk Rd) 11/28/20 1245 62.6   1.7 27   3 28.2   1.5 2.1 WNW | 295 5.4   1.2 0.00 0.00 25.3   1.6 63.2   1.9
Fulton-NW (Ranch 5) 11/28/20 1245 60.1   2.0 33   5 30.8   2.0 2.0 NW | 317 4.5   0.8 0.00 0.00 27.8   0.9 60.6   2.2
Windsor-South (Laughlin Rd) 11/28/20 1245 60.9   2.7 - - - - - 0.00 0.00 28.9   1.5 62.3   2.3
Fulton-SE (Barnes Rd) 11/28/20 1245 59.0   2.6 35   6 31.6   2.0 1.9 W | 265 5.0   0.5 0.00 0.00 27.2   1.8 59.8   2.5
Fulton-SW (Ranch 21) 11/28/20 1245 60.8   3.0 33   6 31.5   2.1 2.6 NNE | 13 5.2   0.4 0.00 0.00 27.9   1.7 61.3   3.2
Santa Rosa-NW (Goldfields) 11/28/20 1245 64.8   0.7 29   2 31.7   1.9 1.7 W | 274 4.3   2.1 0.00 0.00 28.7   2.0 66.9   0.2
NW Santa Rosa (Piner Road) 11/28/20 1245 59.1   1.2 35   4 31.6   1.9 1.0 NW | 323 2.7   3.0 0.00 0.00 26.2   1.3 59.6   1.2
River Rd South (Denner Ranch) 11/28/20 1245 61.8   0.8 32   3 31.4   2.1 1.6 SW | 234 3.7   3.9 0.00 0.00 27.6   1.3 62.5   1.2
West Santa Rosa (Hawk's Roost) 11/28/20 1015 47.7   3.7 57   11 33.2   2.0 0.7 NW | 322 1.8   2.1 0.00 0.00 28.0   1.6 48.0   3.9
Guerneville Rd West (Balletto) 11/28/20 1245 59.8   1.2 38   6 34.0   3.4 1.5 SW | 214 3.4   0.0 0.00 0.00 25.7   1.5 60.3   2.0
Guerneville Rd East (Rich Ranch) 11/28/20 1245 59.9   3.0 35   7 32.0   2.9 - - - - - 26.6   1.5 60.9   2.8
Occidental Rd (Sebastopol) 11/28/20 1245 60.6   3.9 35   8 32.7   3.4 1.5 NNE | 26 4.2   0.2 0.00 0.00 25.8   1.9 61.6   3.8
Lower Westside Rd (Ranch 12) 11/28/20 1245 65.1   0.7 25   2 28.4   1.4 1.5 SW | 233 4.1   1.5 0.00 0.00 27.0   1.3 65.6   0.4
Guerneville (Laughlin Rd) 11/28/20 1245 61.4   2.6 39   6 36.3   2.0 1.6 W | 262 2.3   5.3 0.00 0.00 26.2   0.6 61.8   3.4
Korbel (Winery) 11/28/20 1245 63.8   2.3 30   8 31.3   6.1 1.6 W | 259 3.5   0.3 0.00 0.00 28.4   0.2 64.3   2.9
Forestville (Shone Farms) 11/28/20 1245 60.8   1.7 31   4 30.3   1.6 1.2 NW | 321 3.9   2.2 0.00 0.04 29.8   0.9 62.5   1.2
Forestville-NE (Ranch 30) 11/28/20 1245 63.1   1.0 30   0 31.1   0.7 1.1 SSW | 193 3.4   2.4 0.00 0.00 28.2   0.2 65.6   0.1
Graton-West (Dutton Ranch) 11/28/20 1245 62.1   4.5 30   3 30.7   0.9 1.3 ENE | 71 3.6   0.3 0.00 0.00 26.4   1.3 62.7   4.9
Graton-South (Mill Station Rd) 11/28/20 1245 60.5   3.8 31   4 29.9   0.3 1.2 NNE | 26 2.9   3.1 0.00 0.00 24.8   2.0 61.4   3.5
Sexton Valley (Jacqueline's Blk) 11/28/20 1245 61.2   2.6 33   5 31.8   1.6 0.8 ENE | 76 3.0   3.7 0.00 0.00 27.0   1.1 61.6   3.1
Sebastopol Hills (Burnside Rd) 11/28/20 1245 60.4   1.5 35   6 32.8   3.4 1.2 S | 190 3.3   5.2 0.00 0.00 36.8   2.8 61.5   1.1
Seaview/Fort Ross (Hirsch) 11/28/20 1245 57.5   1.1 32   7 27.7   5.3 2.6 W | 260 5.0   0.4 0.00 0.00 48.8   1.5 59.2   1.4
Max     66.0 39 36.3 2.8 - 5.4 0.00 0.04 48.8 68.4
Avg     61.5 32 31.1 1.6 - 3.8 0.00 - - -
Min     57.5 25 27.7 0.8 - 2.3 0.00 0.00 24.8 59.2